Flight Track Log - Related Links

Times and Time Zones

All times are in EDT time to prevent confusion due to time zone crossing. See the N379CD flight status page for this flight to view local times or setup timezone preferences in your user account.

Time Position Orientation Groundspeed Altitude Reporting Facility
EDT Latitude Longitude Course Direction KTS MPH feet Rate Location/Type
Thu 11:22:57 AM 42.6667 -83.4381 265° West 109 125 1,400  Level Cleveland Center
Thu 11:23:58 AM 42.6633 -83.4858 265° West 121 139 2,500 1,073 Climbing Cleveland Center
Thu 11:25:00 AM 42.6436 -83.5189 231° Southwest 118 136 3,600 984 Climbing Cleveland Center
Thu 11:26:00 AM 42.6108 -83.5031 160° South 131 151 4,500 893 Climbing Cleveland Center
Thu 11:27:01 AM 42.5822 -83.4764 146° Southeast 127 146 5,400 885 Climbing Cleveland Center
Thu 11:28:02 AM 42.5517 -83.4497 147° Southeast 130 150 6,300 776 Climbing Cleveland Center
Thu 11:28:57 AM 42.5208 -83.4258 150° Southeast 145 167 6,900 621 Climbing Cleveland Center
Thu 11:29:58 AM 42.4883 -83.3961 146° Southeast 140 161 7,500 545 Climbing Cleveland Center
Thu 11:30:58 AM 42.4514 -83.3692 152° Southeast 151 174 8,000 248 Climbing Cleveland Center
Thu 11:31:59 AM 42.4058 -83.3644 176° South 165 190 8,000  Level Cleveland Center
Thu 11:32:54 AM 42.3642 -83.3569 172° South 166 191 8,000  Level Cleveland Center
Thu 11:34:07 AM 42.3058 -83.3517 176° South 168 193 8,000  Level Cleveland Center
Thu 11:35:01 AM 42.2644 -83.3469 175° South 168 193 8,000  Level Cleveland Center
Thu 11:36:02 AM 42.2167 -83.3392 173° South 166 191 8,000  Level Cleveland Center
Thu 11:36:57 AM 42.1750 -83.3319 173° South 163 188 8,000  Level Cleveland Center
Thu 11:37:58 AM 42.1314 -83.3272 175° South 160 184 8,000  Level Cleveland Center
Thu 11:38:58 AM 42.0856 -83.3253 178° South 161 185 8,000  Level Cleveland Center
Thu 11:39:59 AM 42.0400 -83.3175 173° South 163 188 8,000  Level Cleveland Center
Thu 11:41:00 AM 41.9912 -83.3241 186° South  Level FlightAware Approximate
Thu 11:48:00 AM 41.6533 -83.3310 172° South  Level FlightAware Approximate
Thu 11:48:10 AM 41.6758 -83.2661 172° South 163 188 8,000  Level Indianapolis Center
Thu 11:49:00 AM 41.6055 -83.3225 172° South  Level FlightAware Approximate
Thu 11:49:12 AM 41.6231 -83.2597 175° South 163 188 8,000  Level Indianapolis Center
Thu 11:50:00 AM 41.5578 -83.3141 172° South  Level FlightAware Approximate
Thu 11:50:14 AM 41.5769 -83.2547 175° South 163 188 8,000  Level Indianapolis Center
Thu 11:51:00 AM 41.5100 -83.3057 172° South  Level FlightAware Approximate
Thu 11:51:16 AM 41.5311 -83.2478 174° South 164 189 8,000  Level Indianapolis Center
Thu 11:52:00 AM 41.4622 -83.2973 172° South  Level FlightAware Approximate
Thu 11:52:18 AM 41.4858 -83.2411 174° South 163 188 8,000  Level Indianapolis Center
Thu 11:53:00 AM 41.4144 -83.2889 172° South  Level FlightAware Approximate
Thu 11:53:20 AM 41.4408 -83.2367 176° South 162 186 8,000  Level Indianapolis Center
Thu 11:54:22 AM 41.3947 -83.2314 175° South 164 189 8,000  Level Indianapolis Center
Thu 11:55:25 AM 41.3492 -83.2261 175° South 164 189 8,000  Level Indianapolis Center
Thu 11:56:27 AM 41.2958 -83.2192 174° South 164 189 8,000  Level Indianapolis Center
Thu 11:57:29 AM 41.2486 -83.2139 175° South 167 192 8,000  Level Indianapolis Center
Thu 11:58:31 AM 41.2031 -83.2069 173° South 165 190 8,000  Level Indianapolis Center
Thu 11:59:33 AM 41.1575 -83.2028 176° South 164 189 8,000  Level Indianapolis Center
Thu 12:00:35 PM 41.1106 -83.1958 174° South 167 192 8,000  Level Indianapolis Center
Thu 12:01:37 PM 41.0642 -83.1900 175° South 166 191 8,000  Level Indianapolis Center
Thu 12:02:39 PM 41.0175 -83.1842 175° South 167 192 8,000  Level Indianapolis Center
Thu 12:03:41 PM 40.9628 -83.1772 175° South 167 192 8,000  Level Indianapolis Center
Thu 12:04:43 PM 40.9161 -83.1717 175° South 166 191 8,000  Level Indianapolis Center
Thu 12:05:45 PM 40.8697 -83.1667 175° South 167 192 8,000  Level Indianapolis Center
Thu 12:06:47 PM 40.8219 -83.1614 175° South 170 196 8,000  Level Indianapolis Center
Thu 12:07:49 PM 40.7753 -83.1558 175° South 169 194 8,000  Level Indianapolis Center
Thu 12:08:51 PM 40.7236 -83.1503 175° South 167 192 8,000  Level Indianapolis Center
Thu 12:09:53 PM 40.6831 -83.1456 175° South 165 190 8,000  Level Indianapolis Center
Thu 12:10:55 PM 40.6300 -83.1392 175° South 168 193 8,000  Level Indianapolis Center
Thu 12:11:57 PM 40.5819 -83.1317 173° South 166 191 8,000  Level Indianapolis Center
Thu 12:12:59 PM 40.5347 -83.1261 175° South 167 192 8,000  Level Indianapolis Center
Thu 12:14:01 PM 40.4897 -83.1211 175° South 167 192 8,000  Level Indianapolis Center
Thu 12:15:03 PM 40.4431 -83.1158 175° South 167 192 8,000 -197 Level Indianapolis Center
Thu 12:16:03 PM 40.3925 -83.1136 178° South 160 184 7,600 -694 Descending Indianapolis Center
Thu 12:17:04 PM 40.3408 -83.1075 175° South 182 209 6,600 -1,180 Descending Indianapolis Center
Thu 12:18:05 PM 40.2869 -83.0986 173° South 205 236 5,200 -787 Descending Indianapolis Center
Thu 12:19:06 PM 40.2350 -83.0925 175° South 159 183 5,000 -236 Descending Indianapolis Center
Thu 12:20:12 PM 40.1956 -83.0847 171° South 157 181 4,700 -469 Descending Indianapolis Center
Thu 12:21:14 PM 40.1536 -83.0694 164° South 151 174 4,000 -649 Descending Indianapolis Center
Thu 12:22:03 PM 40.1189 -83.0461 153° Southeast 156 180 3,500 -545 Descending Indianapolis Center
Thu 12:23:04 PM 40.1072 -83.0011 109° East 142 163 3,000 -788 Descending Indianapolis Center
Thu 12:24:20 PM 40.0856 -83.0192 213° Southwest 148 170 1,700 -783 Descending Indianapolis Center
Thu 12:25:22 PM 40.0761 -83.0636 254° West 128 147 1,200 -484 Descending Indianapolis Center
Thu 12:27:00 PM 40.0667 -83.0667 270° West  Level FlightAware Approximate

Login

Don't have an account? Register now (free) for customized features, flight alerts, and more!